Time;durP1;ratioP1;P1;durP2;ratioP2;P2;SDS_P1;SDS_P2;PMS_P1;PMS_P2;Temp;Humidity;BMP_temperature;BMP_pressure;BME280_temperature;BME280_humidity;BME280_pressure;Samples;Min_cycle;Max_cycle;Signal;HPM_P1;HPM_P2
2023/01/20 00:00:41;;;;;;;22.33;8.82;;;;;;;;;;5065374;28;20411;-82
2023/01/20 00:03:09;;;;;;;18.70;8.57;;;;;;;;;;5062282;28;20411;-82
2023/01/20 00:05:50;;;;;;;22.27;9.37;;;;;;;;;;5062107;28;20513;-81
2023/01/20 00:08:23;;;;;;;23.55;9.30;;;;;;;;;;5062450;28;20427;-81
2023/01/20 00:10:52;;;;;;;26.00;9.53;;;;;;;;;;5061103;28;20505;-81
2023/01/20 00:13:25;;;;;;;20.27;9.43;;;;;;;;;;5059754;28;21019;-81
2023/01/20 00:15:57;;;;;;;25.00;9.77;;;;;;;;;;5061601;28;20423;-81
2023/01/20 00:18:30;;;;;;;24.75;10.18;;;;;;;;;;5056808;28;20890;-81
2023/01/20 00:21:04;;;;;;;24.75;9.98;;;;;;;;;;5077720;28;20421;-81
2023/01/20 00:23:36;;;;;;;22.52;9.60;;;;;;;;;;5062525;28;20423;-81
2023/01/20 00:26:12;;;;;;;23.20;9.95;;;;;;;;;;5057549;28;20420;-82
2023/01/20 00:28:44;;;;;;;23.30;9.67;;;;;;;;;;5067008;28;20432;-81
2023/01/20 00:31:19;;;;;;;28.45;10.48;;;;;;;;;;5063008;28;20430;-81
2023/01/20 00:33:53;;;;;;;22.00;9.75;;;;;;;;;;5075358;28;20423;-81
2023/01/20 00:36:21;;;;;;;21.17;9.50;;;;;;;;;;5063043;28;20542;-81
2023/01/20 00:38:54;;;;;;;27.10;9.80;;;;;;;;;;5077378;28;20433;-81
2023/01/20 00:41:28;;;;;;;22.58;9.93;;;;;;;;;;5063199;28;20444;-81
2023/01/20 00:43:56;;;;;;;21.00;9.25;;;;;;;;;;5059778;28;20444;-81
2023/01/20 00:46:29;;;;;;;22.77;9.65;;;;;;;;;;5068028;28;20432;-81
2023/01/20 00:49:01;;;;;;;24.88;10.43;;;;;;;;;;5059165;28;20423;-81
2023/01/20 00:51:34;;;;;;;24.83;10.15;;;;;;;;;;5077489;28;20903;-82
2023/01/20 00:54:07;;;;;;;25.08;9.98;;;;;;;;;;5078607;28;20425;-81
2023/01/20 00:56:36;;;;;;;22.27;10.13;;;;;;;;;;5062869;28;20432;-81
2023/01/20 00:59:04;;;;;;;23.73;10.13;;;;;;;;;;5057490;28;20492;-81
2023/01/20 01:01:36;;;;;;;25.75;10.60;;;;;;;;;;5061824;28;20920;-82
2023/01/20 01:04:05;;;;;;;22.95;10.57;;;;;;;;;;5057795;28;20417;-81
2023/01/20 01:06:38;;;;;;;24.70;10.48;;;;;;;;;;5075504;28;20423;-82
2023/01/20 01:09:11;;;;;;;23.13;10.32;;;;;;;;;;5077172;28;20430;-81
2023/01/20 01:11:40;;;;;;;24.20;10.30;;;;;;;;;;5059031;28;20416;-82
2023/01/20 01:14:12;;;;;;;24.73;11.23;;;;;;;;;;5056831;28;20430;-81
2023/01/20 01:16:45;;;;;;;25.47;11.20;;;;;;;;;;5059896;28;20431;-81
2023/01/20 01:19:18;;;;;;;28.95;11.48;;;;;;;;;;5055674;28;20431;-81
2023/01/20 01:21:51;;;;;;;25.80;12.32;;;;;;;;;;5060837;28;20440;-80
2023/01/20 01:24:24;;;;;;;26.02;12.05;;;;;;;;;;5063627;28;20427;-81
2023/01/20 01:26:58;;;;;;;27.02;11.63;;;;;;;;;;5074094;28;20434;-81
2023/01/20 01:29:31;;;;;;;29.50;12.67;;;;;;;;;;5062525;28;20914;-81
2023/01/20 01:31:58;;;;;;;30.50;12.90;;;;;;;;;;5061549;28;20426;-81
2023/01/20 01:34:26;;;;;;;31.20;12.45;;;;;;;;;;5056483;28;20415;-82
2023/01/20 01:36:54;;;;;;;25.88;12.05;;;;;;;;;;5062953;28;20431;-81
2023/01/20 01:39:27;;;;;;;26.50;12.68;;;;;;;;;;5062354;28;20754;-81
2023/01/20 01:42:01;;;;;;;27.15;12.57;;;;;;;;;;5059387;28;20439;-81
2023/01/20 01:44:29;;;;;;;39.40;13.10;;;;;;;;;;5073710;28;20428;-81
2023/01/20 01:47:02;;;;;;;32.30;13.57;;;;;;;;;;5056615;28;20429;-82
2023/01/20 01:49:35;;;;;;;36.67;14.63;;;;;;;;;;5069513;28;20447;-81
2023/01/20 01:52:08;;;;;;;33.65;14.40;;;;;;;;;;5058812;28;20416;-82
2023/01/20 01:54:44;;;;;;;33.38;14.32;;;;;;;;;;5073103;28;20429;-81
2023/01/20 01:57:19;;;;;;;31.75;14.00;;;;;;;;;;5056172;28;20430;-81
2023/01/20 01:59:46;;;;;;;34.83;14.60;;;;;;;;;;5064397;28;20427;-81
2023/01/20 02:02:19;;;;;;;34.50;15.13;;;;;;;;;;5049801;28;20425;-81
2023/01/20 02:04:52;;;;;;;40.47;16.17;;;;;;;;;;5061522;28;20427;-81
2023/01/20 02:07:25;;;;;;;38.88;15.60;;;;;;;;;;5051465;28;20420;-81
2023/01/20 02:09:58;;;;;;;39.47;16.45;;;;;;;;;;5075003;28;20415;-81
2023/01/20 02:12:32;;;;;;;37.17;16.15;;;;;;;;;;5058401;28;20888;-81
2023/01/20 02:15:06;;;;;;;39.60;16.42;;;;;;;;;;5072815;28;20436;-81
2023/01/20 02:17:43;;;;;;;36.20;17.00;;;;;;;;;;5051137;28;20427;-81
2023/01/20 02:20:25;;;;;;;34.42;16.50;;;;;;;;;;5061561;28;20420;-81
2023/01/20 02:22:56;;;;;;;41.70;17.02;;;;;;;;;;5061755;28;20431;-81
2023/01/20 02:25:35;;;;;;;35.92;16.85;;;;;;;;;;5060658;28;20429;-81
2023/01/20 02:28:27;;;;;;;36.97;17.05;;;;;;;;;;5057269;28;20421;-82
2023/01/20 02:31:17;;;;;;;38.08;17.58;;;;;;;;;;5055083;28;20438;-81
2023/01/20 02:33:49;;;;;;;36.33;16.92;;;;;;;;;;5049999;28;20425;-81
2023/01/20 02:36:26;;;;;;;41.92;17.90;;;;;;;;;;5059919;28;20900;-81
2023/01/20 02:39:01;;;;;;;39.90;16.98;;;;;;;;;;5057916;28;20430;-81
2023/01/20 02:41:37;;;;;;;39.60;18.58;;;;;;;;;;5058383;28;20496;-81
2023/01/20 02:44:13;;;;;;;37.88;17.95;;;;;;;;;;5074522;28;20425;-82
2023/01/20 02:46:50;;;;;;;38.67;18.88;;;;;;;;;;5057537;28;20419;-81
2023/01/20 02:49:23;;;;;;;40.90;18.88;;;;;;;;;;5058739;28;20448;-81
2023/01/20 02:51:53;;;;;;;40.97;18.98;;;;;;;;;;5076837;28;20770;-81
2023/01/20 02:54:27;;;;;;;41.07;19.43;;;;;;;;;;5060007;28;20412;-81
2023/01/20 02:57:02;;;;;;;41.50;19.10;;;;;;;;;;5057791;28;20430;-81
2023/01/20 02:59:31;;;;;;;42.35;18.08;;;;;;;;;;5064996;28;20435;-81
2023/01/20 03:02:07;;;;;;;41.38;19.95;;;;;;;;;;5078867;28;20429;-81
2023/01/20 03:04:44;;;;;;;44.83;19.67;;;;;;;;;;5067952;28;20427;-82
2023/01/20 03:07:14;;;;;;;43.37;20.03;;;;;;;;;;5078377;28;20436;-81
2023/01/20 03:09:48;;;;;;;46.08;19.90;;;;;;;;;;5065267;28;20943;-81
2023/01/20 03:12:24;;;;;;;44.60;19.73;;;;;;;;;;5063365;28;20483;-81
2023/01/20 03:14:57;;;;;;;40.45;19.52;;;;;;;;;;5064962;28;20428;-81
2023/01/20 03:17:29;;;;;;;43.85;20.10;;;;;;;;;;5063049;28;20791;-81
2023/01/20 03:20:04;;;;;;;42.35;20.27;;;;;;;;;;5061828;28;20436;-82
2023/01/20 03:22:37;;;;;;;40.47;19.83;;;;;;;;;;5064150;28;20426;-81
2023/01/20 03:25:10;;;;;;;39.43;18.87;;;;;;;;;;5077046;28;20525;-82
2023/01/20 03:27:43;;;;;;;39.15;18.98;;;;;;;;;;5059956;28;20417;-81
2023/01/20 03:30:12;;;;;;;41.78;19.95;;;;;;;;;;5054730;28;20425;-82
2023/01/20 03:32:41;;;;;;;41.10;19.85;;;;;;;;;;5062320;28;20437;-82
2023/01/20 03:35:16;;;;;;;40.17;19.58;;;;;;;;;;5078131;28;20440;-82
2023/01/20 03:37:44;;;;;;;46.33;20.43;;;;;;;;;;5075219;28;20423;-82
2023/01/20 03:40:13;;;;;;;40.60;19.40;;;;;;;;;;5062653;28;20429;-81
2023/01/20 03:42:52;;;;;;;39.00;19.20;;;;;;;;;;5070077;28;20427;-82
2023/01/20 03:45:29;;;;;;;40.70;19.92;;;;;;;;;;5052461;28;20432;-81
2023/01/20 03:47:59;;;;;;;41.13;18.88;;;;;;;;;;5065074;28;20404;-82
2023/01/20 03:50:35;;;;;;;43.13;19.93;;;;;;;;;;5060120;28;20415;-82
2023/01/20 03:53:06;;;;;;;40.60;19.65;;;;;;;;;;5080134;28;20423;-82
2023/01/20 03:55:36;;;;;;;40.35;18.92;;;;;;;;;;5062031;28;20415;-81
2023/01/20 03:58:10;;;;;;;40.42;19.50;;;;;;;;;;5059638;28;20413;-82
2023/01/20 04:00:44;;;;;;;41.97;19.27;;;;;;;;;;5063307;28;20432;-81
2023/01/20 04:03:19;;;;;;;43.20;19.37;;;;;;;;;;5062642;28;20470;-81
2023/01/20 04:05:53;;;;;;;39.70;18.85;;;;;;;;;;5060436;28;20417;-81
2023/01/20 04:08:24;;;;;;;42.38;18.90;;;;;;;;;;5061460;28;20397;-83
2023/01/20 04:10:58;;;;;;;37.75;18.83;;;;;;;;;;5062832;28;20762;-81
2023/01/20 04:13:30;;;;;;;39.55;18.88;;;;;;;;;;5062235;28;20446;-82
2023/01/20 04:16:05;;;;;;;40.00;18.70;;;;;;;;;;5076969;28;20427;-81
2023/01/20 04:18:40;;;;;;;39.95;19.50;;;;;;;;;;5060629;28;20934;-81
2023/01/20 04:21:19;;;;;;;42.63;19.58;;;;;;;;;;5060552;28;20895;-81
2023/01/20 04:23:54;;;;;;;41.50;19.15;;;;;;;;;;5057106;28;20922;-82
2023/01/20 04:26:27;;;;;;;42.53;19.30;;;;;;;;;;5064096;28;20440;-82
2023/01/20 04:29:07;;;;;;;44.08;19.30;;;;;;;;;;5062997;28;20419;-81
2023/01/20 04:31:34;;;;;;;42.50;19.10;;;;;;;;;;5057237;28;20428;-81
2023/01/20 04:34:07;;;;;;;40.28;19.23;;;;;;;;;;5062186;28;20423;-81
2023/01/20 04:36:36;;;;;;;40.47;19.45;;;;;;;;;;5059820;28;20425;-82
2023/01/20 04:39:09;;;;;;;38.22;18.48;;;;;;;;;;5059703;28;20427;-82
2023/01/20 04:41:42;;;;;;;41.63;19.20;;;;;;;;;;5075339;28;20813;-81
2023/01/20 04:44:15;;;;;;;43.37;19.57;;;;;;;;;;5060241;28;20429;-81
2023/01/20 04:46:47;;;;;;;43.78;19.75;;;;;;;;;;5074913;28;20437;-82
2023/01/20 04:49:20;;;;;;;41.17;18.48;;;;;;;;;;5059273;28;20426;-81
2023/01/20 04:51:54;;;;;;;38.92;18.30;;;;;;;;;;5058965;28;20421;-82
2023/01/20 04:54:27;;;;;;;41.53;19.77;;;;;;;;;;5062556;28;20432;-82
2023/01/20 04:57:00;;;;;;;40.53;18.73;;;;;;;;;;5060527;28;20774;-81
2023/01/20 04:59:32;;;;;;;37.65;18.20;;;;;;;;;;5059236;28;20896;-81
2023/01/20 05:02:00;;;;;;;39.28;18.65;;;;;;;;;;5059517;28;20428;-81
2023/01/20 05:04:28;;;;;;;40.67;18.67;;;;;;;;;;5064152;28;20418;-82
2023/01/20 05:07:02;;;;;;;37.90;17.80;;;;;;;;;;5061479;28;20416;-81
2023/01/20 05:09:35;;;;;;;39.30;17.83;;;;;;;;;;5058826;28;21199;-82
2023/01/20 05:12:03;;;;;;;37.58;18.08;;;;;;;;;;5061329;28;20420;-81
2023/01/20 05:14:36;;;;;;;36.00;17.20;;;;;;;;;;5076684;28;20426;-82
2023/01/20 05:17:09;;;;;;;41.88;18.30;;;;;;;;;;5059325;28;20421;-81
2023/01/20 05:19:42;;;;;;;41.63;18.98;;;;;;;;;;5057035;28;20440;-82
2023/01/20 05:22:16;;;;;;;38.97;17.95;;;;;;;;;;5057577;28;20433;-81
2023/01/20 05:24:49;;;;;;;43.05;18.73;;;;;;;;;;5061420;28;20423;-82
2023/01/20 05:27:22;;;;;;;42.20;18.17;;;;;;;;;;5077174;28;20433;-81
2023/01/20 05:29:54;;;;;;;37.38;17.45;;;;;;;;;;5062013;28;20411;-81
2023/01/20 05:32:27;;;;;;;40.75;18.02;;;;;;;;;;5074270;28;20432;-81
2023/01/20 05:35:00;;;;;;;38.95;17.90;;;;;;;;;;5063198;28;20427;-81
2023/01/20 05:37:34;;;;;;;40.72;18.02;;;;;;;;;;5059316;28;20437;-82
2023/01/20 05:40:07;;;;;;;38.20;17.17;;;;;;;;;;5063904;28;20423;-82
2023/01/20 05:42:40;;;;;;;37.13;17.58;;;;;;;;;;5062197;28;20911;-81
2023/01/20 05:45:13;;;;;;;38.20;17.70;;;;;;;;;;5055860;28;20450;-81
2023/01/20 05:47:45;;;;;;;42.10;18.05;;;;;;;;;;5057965;28;20423;-81
2023/01/20 05:50:18;;;;;;;39.60;17.20;;;;;;;;;;5058702;28;20951;-82
2023/01/20 05:52:52;;;;;;;40.78;16.88;;;;;;;;;;5056817;28;21175;-82
2023/01/20 05:55:20;;;;;;;37.63;16.95;;;;;;;;;;5050642;28;20758;-82
2023/01/20 05:57:53;;;;;;;37.58;16.88;;;;;;;;;;5061308;28;20419;-82
2023/01/20 06:00:26;;;;;;;38.60;16.83;;;;;;;;;;5062755;28;20427;-81
2023/01/20 06:02:54;;;;;;;38.08;16.40;;;;;;;;;;5056745;28;20459;-82
2023/01/20 06:05:26;;;;;;;40.20;17.23;;;;;;;;;;5055187;28;20414;-81
2023/01/20 06:08:01;;;;;;;39.20;17.15;;;;;;;;;;5059015;28;20436;-82
2023/01/20 06:10:28;;;;;;;33.75;16.05;;;;;;;;;;5063137;28;20430;-82
2023/01/20 06:13:01;;;;;;;34.67;16.08;;;;;;;;;;5057840;28;20423;-82
2023/01/20 06:15:29;;;;;;;39.05;15.82;;;;;;;;;;5061319;28;20898;-82
2023/01/20 06:17:57;;;;;;;38.27;15.53;;;;;;;;;;5058243;28;20444;-82
2023/01/20 06:20:24;;;;;;;33.08;15.05;;;;;;;;;;5072621;28;20427;-81
2023/01/20 06:22:57;;;;;;;34.20;15.57;;;;;;;;;;5059125;28;20431;-81
2023/01/20 06:25:31;;;;;;;36.80;15.93;;;;;;;;;;5057798;28;20427;-81
2023/01/20 06:27:59;;;;;;;34.55;15.55;;;;;;;;;;5059914;28;20405;-82
2023/01/20 06:30:32;;;;;;;33.70;15.00;;;;;;;;;;5057700;28;20446;-81
2023/01/20 06:33:00;;;;;;;34.75;15.00;;;;;;;;;;5057005;28;20419;-81
2023/01/20 06:35:28;;;;;;;34.67;15.48;;;;;;;;;;5065301;28;20430;-81
2023/01/20 06:38:00;;;;;;;37.72;15.38;;;;;;;;;;5066846;28;20406;-81
2023/01/20 06:40:28;;;;;;;34.97;15.10;;;;;;;;;;5059987;28;20440;-81
2023/01/20 06:43:02;;;;;;;32.30;15.20;;;;;;;;;;5061854;28;20448;-81
2023/01/20 06:45:37;;;;;;;34.65;15.25;;;;;;;;;;5078464;28;20790;-81
2023/01/20 06:48:09;;;;;;;33.40;14.75;;;;;;;;;;5064360;28;20427;-82
2023/01/20 06:50:37;;;;;;;34.33;15.30;;;;;;;;;;5060629;28;20427;-81
2023/01/20 06:53:05;;;;;;;30.10;14.77;;;;;;;;;;5061937;28;20415;-81
2023/01/20 06:55:38;;;;;;;34.10;14.63;;;;;;;;;;5062228;28;20892;-81
2023/01/20 06:58:12;;;;;;;34.67;14.95;;;;;;;;;;5057597;28;20913;-81
2023/01/20 07:00:45;;;;;;;37.05;15.02;;;;;;;;;;5060038;28;20779;-82
2023/01/20 07:03:18;;;;;;;37.08;15.18;;;;;;;;;;5076245;28;20424;-81
2023/01/20 07:05:52;;;;;;;39.73;15.40;;;;;;;;;;5057543;28;20502;-81
2023/01/20 07:08:25;;;;;;;32.97;15.00;;;;;;;;;;5058256;28;20427;-81
2023/01/20 07:10:53;;;;;;;37.05;16.00;;;;;;;;;;5061587;28;20419;-81
2023/01/20 07:13:27;;;;;;;33.25;14.23;;;;;;;;;;5064372;28;20415;-81
2023/01/20 07:16:00;;;;;;;31.77;13.93;;;;;;;;;;5059467;28;20786;-81
2023/01/20 07:18:27;;;;;;;32.40;14.05;;;;;;;;;;5078164;28;20416;-82
2023/01/20 07:21:01;;;;;;;33.80;14.55;;;;;;;;;;5059596;28;20429;-82
2023/01/20 07:23:31;;;;;;;32.08;13.30;;;;;;;;;;5066009;28;20415;-81
2023/01/20 07:26:04;;;;;;;33.70;14.20;;;;;;;;;;5063680;28;21171;-82
2023/01/20 07:28:39;;;;;;;36.88;14.40;;;;;;;;;;5078357;28;20435;-81
2023/01/20 07:31:08;;;;;;;33.25;14.00;;;;;;;;;;5076240;28;20932;-81
2023/01/20 07:33:36;;;;;;;32.73;13.70;;;;;;;;;;5064232;28;20419;-82
2023/01/20 07:36:09;;;;;;;33.55;13.80;;;;;;;;;;5061996;28;20435;-82
2023/01/20 07:38:43;;;;;;;31.90;14.13;;;;;;;;;;5065106;28;20417;-82
2023/01/20 07:41:18;;;;;;;35.45;14.20;;;;;;;;;;5056441;28;20424;-81
2023/01/20 07:43:48;;;;;;;31.45;13.57;;;;;;;;;;5052326;28;20904;-81
2023/01/20 07:46:21;;;;;;;31.75;13.43;;;;;;;;;;5041909;28;20427;-82
2023/01/20 07:48:55;;;;;;;38.30;13.88;;;;;;;;;;5037800;28;20448;-83
2023/01/20 07:51:25;;;;;;;31.88;13.85;;;;;;;;;;5040050;28;20481;-84
2023/01/20 07:53:58;;;;;;;34.42;14.23;;;;;;;;;;5046575;28;20435;-82
2023/01/20 07:56:28;;;;;;;36.58;14.80;;;;;;;;;;5046624;28;20435;-81
2023/01/20 07:59:02;;;;;;;35.17;14.40;;;;;;;;;;5031980;28;20423;-83
2023/01/20 08:01:35;;;;;;;30.55;13.68;;;;;;;;;;5035888;28;20420;-81
2023/01/20 08:04:08;;;;;;;34.57;14.60;;;;;;;;;;5043269;28;21118;-81
2023/01/20 08:06:41;;;;;;;34.40;14.50;;;;;;;;;;5040377;28;20443;-82
2023/01/20 08:09:11;;;;;;;34.60;14.05;;;;;;;;;;5031416;28;20426;-81
2023/01/20 08:11:43;;;;;;;36.00;15.00;;;;;;;;;;5041014;28;20435;-82
2023/01/20 08:14:18;;;;;;;32.30;13.40;;;;;;;;;;5041631;28;20795;-82
2023/01/20 08:16:45;;;;;;;35.27;14.30;;;;;;;;;;5042687;28;20423;-82
2023/01/20 08:19:18;;;;;;;35.35;13.70;;;;;;;;;;5034852;28;20952;-83
2023/01/20 08:21:51;;;;;;;31.88;13.93;;;;;;;;;;5026338;28;21598;-81
2023/01/20 08:24:24;;;;;;;34.25;14.15;;;;;;;;;;5042191;28;20932;-82
2023/01/20 08:26:57;;;;;;;35.75;14.30;;;;;;;;;;5039875;28;20436;-82
2023/01/20 08:29:32;;;;;;;35.42;14.68;;;;;;;;;;5039557;28;21207;-82
2023/01/20 08:32:05;;;;;;;34.53;14.70;;;;;;;;;;5041732;28;20435;-85
2023/01/20 08:34:38;;;;;;;34.85;14.65;;;;;;;;;;5058586;28;20431;-82
2023/01/20 08:37:06;;;;;;;32.58;13.57;;;;;;;;;;5040624;28;20424;-82
2023/01/20 08:39:39;;;;;;;34.33;14.45;;;;;;;;;;5048113;28;20776;-82
2023/01/20 08:42:07;;;;;;;34.38;14.43;;;;;;;;;;5040492;28;20450;-82
2023/01/20 08:44:41;;;;;;;32.53;14.30;;;;;;;;;;5044997;28;20428;-81
2023/01/20 08:47:14;;;;;;;37.28;15.35;;;;;;;;;;5042894;28;20432;-82
2023/01/20 08:49:42;;;;;;;33.47;12.88;;;;;;;;;;5050345;28;20443;-82
2023/01/20 08:52:14;;;;;;;32.97;13.32;;;;;;;;;;5051183;28;20443;-83
2023/01/20 08:54:47;;;;;;;30.92;13.15;;;;;;;;;;5039943;28;20438;-84
2023/01/20 08:57:15;;;;;;;33.95;13.32;;;;;;;;;;5037650;28;20417;-82
2023/01/20 08:59:46;;;;;;;30.50;13.40;;;;;;;;;;5048028;28;20440;-81
2023/01/20 09:02:18;;;;;;;33.17;13.30;;;;;;;;;;5045311;28;20420;-81
2023/01/20 09:04:48;;;;;;;31.50;13.55;;;;;;;;;;5038847;28;20424;-84
2023/01/20 09:07:21;;;;;;;34.83;13.57;;;;;;;;;;5043306;28;20442;-82
2023/01/20 09:09:49;;;;;;;38.70;14.93;;;;;;;;;;5033682;28;20435;-83
2023/01/20 09:12:22;;;;;;;31.38;13.60;;;;;;;;;;5039723;28;20435;-82
2023/01/20 09:14:51;;;;;;;33.33;13.52;;;;;;;;;;5039906;28;20450;-81
2023/01/20 09:17:19;;;;;;;34.40;13.88;;;;;;;;;;5042704;28;20431;-82
2023/01/20 09:19:53;;;;;;;29.83;12.85;;;;;;;;;;5049163;28;20408;-81
2023/01/20 09:22:26;;;;;;;31.73;12.52;;;;;;;;;;5045634;28;21786;-80
2023/01/20 09:24:53;;;;;;;34.95;13.57;;;;;;;;;;5045550;28;20494;-81
2023/01/20 09:27:26;;;;;;;31.15;13.27;;;;;;;;;;5047220;28;20435;-80
2023/01/20 09:30:00;;;;;;;34.45;13.27;;;;;;;;;;5037382;28;20458;-82
2023/01/20 09:32:33;;;;;;;33.83;13.77;;;;;;;;;;5037210;28;20424;-81
2023/01/20 09:35:07;;;;;;;32.85;13.85;;;;;;;;;;5036841;28;20428;-83
2023/01/20 09:46:10;;;;;;;33.15;13.20;;;;;;;;;;5053429;28;20872;-82
2023/01/20 09:54:22;;;;;;;34.45;13.00;;;;;;;;;;5038027;28;20442;-82
2023/01/20 09:56:52;;;;;;;31.13;12.77;;;;;;;;;;5037291;28;20417;-82
2023/01/20 09:59:26;;;;;;;31.35;13.05;;;;;;;;;;5043839;28;20426;-82
2023/01/20 10:02:03;;;;;;;32.17;13.30;;;;;;;;;;5044968;28;20436;-82
2023/01/20 10:04:40;;;;;;;33.10;12.98;;;;;;;;;;5035088;28;20419;-81
2023/01/20 10:07:16;;;;;;;31.50;12.35;;;;;;;;;;5031563;28;20776;-81
2023/01/20 10:09:45;;;;;;;27.83;12.27;;;;;;;;;;5023676;28;20427;-82
2023/01/20 10:12:16;;;;;;;28.73;12.43;;;;;;;;;;5033466;28;20639;-81
2023/01/20 10:14:50;;;;;;;33.28;12.15;;;;;;;;;;5035595;28;20423;-82
2023/01/20 10:17:27;;;;;;;33.13;12.87;;;;;;;;;;5040610;28;20490;-81
2023/01/20 10:20:02;;;;;;;30.92;12.98;;;;;;;;;;5034667;28;20424;-82
2023/01/20 10:22:40;;;;;;;34.30;12.35;;;;;;;;;;5031228;28;20459;-82
2023/01/20 10:25:14;;;;;;;27.73;12.10;;;;;;;;;;5033239;28;21124;-82
2023/01/20 10:27:45;;;;;;;32.08;13.65;;;;;;;;;;5041139;28;20447;-82
2023/01/20 10:30:19;;;;;;;26.42;12.00;;;;;;;;;;5038479;28;20407;-81
2023/01/20 10:32:57;;;;;;;33.17;13.47;;;;;;;;;;5041797;28;21325;-82
2023/01/20 10:35:25;;;;;;;30.85;13.05;;;;;;;;;;5033805;28;20434;-82
2023/01/20 10:37:58;;;;;;;35.60;13.52;;;;;;;;;;5049099;28;20434;-82
2023/01/20 10:40:34;;;;;;;30.92;12.75;;;;;;;;;;5039045;28;20424;-82
2023/01/20 10:43:10;;;;;;;28.90;12.50;;;;;;;;;;5034966;28;20432;-81
2023/01/20 10:45:41;;;;;;;32.35;13.25;;;;;;;;;;5032309;28;20419;-82
2023/01/20 10:48:16;;;;;;;35.53;13.82;;;;;;;;;;5031300;28;20411;-82
2023/01/20 10:50:52;;;;;;;33.90;14.10;;;;;;;;;;5038498;28;20443;-82
2023/01/20 10:53:32;;;;;;;35.10;13.30;;;;;;;;;;5034641;28;20431;-81
2023/01/20 10:56:16;;;;;;;34.95;13.65;;;;;;;;;;5030889;28;20424;-82
2023/01/20 10:58:49;;;;;;;35.35;14.77;;;;;;;;;;5032318;28;21837;-81
2023/01/20 11:01:21;;;;;;;36.37;15.00;;;;;;;;;;5034786;28;20426;-83
2023/01/20 11:03:56;;;;;;;41.92;18.45;;;;;;;;;;5041655;28;20416;-83
2023/01/20 11:06:29;;;;;;;33.95;14.27;;;;;;;;;;5038203;28;20419;-82
2023/01/20 11:08:58;;;;;;;32.35;14.20;;;;;;;;;;5038088;28;20416;-81
2023/01/20 11:11:31;;;;;;;35.97;14.80;;;;;;;;;;5037998;28;20416;-82
2023/01/20 11:13:59;;;;;;;34.15;13.85;;;;;;;;;;5030411;28;20431;-82
2023/01/20 11:16:32;;;;;;;35.30;14.60;;;;;;;;;;5036259;28;20420;-82
2023/01/20 11:19:02;;;;;;;47.20;25.20;;;;;;;;;;5041526;28;20419;-81
2023/01/20 11:21:32;;;;;;;34.33;15.70;;;;;;;;;;5036841;28;20907;-81
2023/01/20 11:24:00;;;;;;;46.90;23.05;;;;;;;;;;5059531;28;20446;-81
2023/01/20 11:26:28;;;;;;;34.88;16.33;;;;;;;;;;5038490;28;20410;-82
2023/01/20 11:29:03;;;;;;;34.55;16.23;;;;;;;;;;5037833;28;20432;-81
2023/01/20 11:31:36;;;;;;;39.13;16.33;;;;;;;;;;5047004;28;21978;-82
2023/01/20 11:34:27;;;;;;;36.63;15.20;;;;;;;;;;5040069;28;20434;-81
2023/01/20 11:37:27;;;;;;;34.67;15.40;;;;;;;;;;5038668;28;21780;-81
2023/01/20 11:40:02;;;;;;;34.97;14.77;;;;;;;;;;5006188;28;20428;-82
2023/01/20 11:42:41;;;;;;;33.53;15.15;;;;;;;;;;5008130;28;20419;-82
2023/01/20 11:45:26;;;;;;;33.67;15.50;;;;;;;;;;5041891;28;20423;-82
2023/01/20 11:48:02;;;;;;;31.80;14.82;;;;;;;;;;5042325;28;21161;-81
2023/01/20 11:50:36;;;;;;;32.70;14.63;;;;;;;;;;5033407;28;20462;-81
2023/01/20 11:53:17;;;;;;;32.93;14.60;;;;;;;;;;5035020;28;20419;-82
2023/01/20 11:55:49;;;;;;;31.88;14.27;;;;;;;;;;5045350;28;20969;-82
2023/01/20 11:58:17;;;;;;;35.22;14.90;;;;;;;;;;5039276;28;20906;-81
2023/01/20 12:00:51;;;;;;;33.40;15.55;;;;;;;;;;5040902;28;20434;-81
2023/01/20 12:03:30;;;;;;;34.90;15.52;;;;;;;;;;5039893;28;20431;-81
2023/01/20 12:06:08;;;;;;;41.33;20.90;;;;;;;;;;5038950;28;20418;-81
2023/01/20 12:08:42;;;;;;;34.47;14.70;;;;;;;;;;5058827;28;21149;-81
2023/01/20 12:11:17;;;;;;;34.85;16.60;;;;;;;;;;5032676;28;20432;-81
2023/01/20 12:16:52;;;;;;;29.85;13.98;;;;;;;;;;5042560;28;21045;-81
2023/01/20 12:19:25;;;;;;;29.63;13.15;;;;;;;;;;5040719;28;20421;-82
2023/01/20 12:22:01;;;;;;;32.65;14.00;;;;;;;;;;5052507;28;20424;-82
2023/01/20 12:25:06;;;;;;;32.95;16.42;;;;;;;;;;5059299;28;21041;-82
2023/01/20 12:27:25;;;;;;;29.65;13.75;;;;;;;;;;5037630;28;20887;-80
2023/01/20 12:30:00;;;;;;;30.02;13.93;;;;;;;;;;5044402;28;20435;-80
2023/01/20 12:32:30;;;;;;;31.77;14.23;;;;;;;;;;5044919;28;20431;-80
2023/01/20 12:35:03;;;;;;;29.42;13.30;;;;;;;;;;5040638;28;20776;-80
2023/01/20 12:37:40;;;;;;;29.35;12.95;;;;;;;;;;5034847;28;20516;-80
2023/01/20 12:40:22;;;;;;;29.55;13.02;;;;;;;;;;5035597;28;20431;-80
2023/01/20 12:43:07;;;;;;;29.35;14.23;;;;;;;;;;5013541;28;20793;-81
2023/01/20 12:45:43;;;;;;;31.27;13.00;;;;;;;;;;5049185;28;20408;-80
2023/01/20 12:48:20;;;;;;;35.22;13.98;;;;;;;;;;5036477;28;20510;-80
2023/01/20 12:50:58;;;;;;;31.58;13.82;;;;;;;;;;5032107;28;20430;-81
2023/01/20 12:53:37;;;;;;;27.05;12.77;;;;;;;;;;5042677;28;20415;-81
2023/01/20 12:56:10;;;;;;;27.58;12.70;;;;;;;;;;5038636;28;20431;-80
2023/01/20 12:58:45;;;;;;;29.17;12.55;;;;;;;;;;5043299;28;20768;-80
2023/01/20 13:01:22;;;;;;;30.15;12.63;;;;;;;;;;5039661;28;20419;-80
2023/01/20 13:04:14;;;;;;;28.67;12.73;;;;;;;;;;5035148;28;21321;-80
2023/01/20 13:06:48;;;;;;;30.42;13.23;;;;;;;;;;5042799;28;20775;-80
2023/01/20 13:09:34;;;;;;;31.98;13.20;;;;;;;;;;5040634;28;20466;-81
2023/01/20 13:12:15;;;;;;;30.93;13.37;;;;;;;;;;5038102;28;20722;-81
2023/01/20 13:14:44;;;;;;;27.75;12.35;;;;;;;;;;5034222;28;20951;-80
2023/01/20 13:17:17;;;;;;;29.00;12.55;;;;;;;;;;5038018;28;20410;-80
2023/01/20 13:19:47;;;;;;;27.95;12.55;;;;;;;;;;5031125;28;20438;-80
2023/01/20 13:22:17;;;;;;;26.98;12.55;;;;;;;;;;5038158;28;21235;-80
2023/01/20 13:24:51;;;;;;;29.35;11.95;;;;;;;;;;5038070;28;21188;-81
2023/01/20 13:27:24;;;;;;;27.23;12.52;;;;;;;;;;5043122;28;20478;-81
2023/01/20 13:29:54;;;;;;;26.37;12.10;;;;;;;;;;5041565;28;20466;-81
2023/01/20 13:32:29;;;;;;;29.48;12.32;;;;;;;;;;5040920;28;20415;-81
2023/01/20 13:35:03;;;;;;;29.85;12.20;;;;;;;;;;5036861;28;20407;-80
2023/01/20 13:37:34;;;;;;;29.40;12.35;;;;;;;;;;5038611;28;20438;-80
2023/01/20 13:40:25;;;;;;;32.35;13.48;;;;;;;;;;5035071;28;20434;-80
2023/01/20 13:42:58;;;;;;;28.73;13.10;;;;;;;;;;5009854;28;20426;-80
2023/01/20 13:45:26;;;;;;;28.58;12.20;;;;;;;;;;5025824;28;20439;-81
2023/01/20 13:48:09;;;;;;;28.88;12.77;;;;;;;;;;5035027;28;20434;-80
2023/01/20 13:50:46;;;;;;;28.20;12.40;;;;;;;;;;5040020;28;20438;-80
2023/01/20 13:53:27;;;;;;;26.02;12.10;;;;;;;;;;5034530;28;20411;-80
2023/01/20 13:56:38;;;;;;;28.27;12.75;;;;;;;;;;5036355;28;20816;-80
2023/01/20 13:59:11;;;;;;;28.13;12.85;;;;;;;;;;5002103;28;20462;-80
2023/01/20 14:01:44;;;;;;;26.98;12.68;;;;;;;;;;5034500;28;20415;-80
2023/01/20 14:04:17;;;;;;;30.33;14.00;;;;;;;;;;5036594;28;20427;-81
2023/01/20 14:06:52;;;;;;;30.52;13.07;;;;;;;;;;5033266;28;20435;-81
2023/01/20 14:09:21;;;;;;;25.98;12.05;;;;;;;;;;5034529;28;20404;-80
2023/01/20 14:11:54;;;;;;;27.13;12.40;;;;;;;;;;5043796;28;20431;-81
2023/01/20 14:14:27;;;;;;;28.20;12.73;;;;;;;;;;5044502;28;20419;-81
2023/01/20 14:17:03;;;;;;;27.45;12.80;;;;;;;;;;5034570;28;20427;-80
2023/01/20 14:19:37;;;;;;;26.13;12.23;;;;;;;;;;5036759;28;20427;-80
2023/01/20 14:22:16;;;;;;;27.48;12.50;;;;;;;;;;5046050;28;20981;-80
2023/01/20 14:24:45;;;;;;;30.80;12.80;;;;;;;;;;5051781;28;21639;-81
2023/01/20 14:27:19;;;;;;;28.67;12.80;;;;;;;;;;5053135;28;20430;-80
2023/01/20 14:29:53;;;;;;;27.88;12.30;;;;;;;;;;5049287;28;20415;-80
2023/01/20 14:32:27;;;;;;;25.23;12.00;;;;;;;;;;5038292;28;21076;-80
2023/01/20 14:35:00;;;;;;;31.40;12.60;;;;;;;;;;5036134;28;20411;-80
2023/01/20 14:37:32;;;;;;;28.03;12.37;;;;;;;;;;5042252;28;20427;-81
2023/01/20 14:40:12;;;;;;;27.50;12.52;;;;;;;;;;5036039;28;20408;-80
2023/01/20 14:42:40;;;;;;;28.35;12.13;;;;;;;;;;5012016;28;20423;-80
2023/01/20 14:45:17;;;;;;;28.00;12.40;;;;;;;;;;5036117;28;20422;-79
2023/01/20 14:47:50;;;;;;;28.25;12.63;;;;;;;;;;5032146;28;21460;-79
2023/01/20 14:50:24;;;;;;;30.98;13.35;;;;;;;;;;5035521;28;20419;-80
2023/01/20 14:52:58;;;;;;;31.33;13.95;;;;;;;;;;5036521;28;21321;-80
2023/01/20 14:55:29;;;;;;;31.80;15.00;;;;;;;;;;5040370;28;21158;-79
2023/01/20 14:58:07;;;;;;;31.60;14.68;;;;;;;;;;5050746;28;20442;-79
2023/01/20 15:00:35;;;;;;;29.67;13.85;;;;;;;;;;5042310;28;20434;-80
2023/01/20 15:03:05;;;;;;;30.27;13.10;;;;;;;;;;5055631;28;20427;-80
2023/01/20 15:05:41;;;;;;;29.75;12.82;;;;;;;;;;5036239;28;20424;-79
2023/01/20 15:08:20;;;;;;;27.70;11.90;;;;;;;;;;5044012;28;20416;-80
2023/01/20 15:11:03;;;;;;;27.50;12.05;;;;;;;;;;5048018;28;20407;-79